Portada
METAR-TAF:

METAR-TAF

Aeroports :

Southern Illinois Airport

Carbondale-Murphysboro, Illinois, Estats Units d'Amèrica

latitud: 37-46-59N, longitud: 089-14-42W, altitud: 125 m

Observació

L'informe es va fer fa 38 minuts, a les 19:52 UTC
Vent 9 kt del Nord-Est
Temperatura 7°C
Humitat 66%
Pressió 1019 hPa
Visibilitat: 16.1 km
Núvols disperses a una alçada de 2300 ft

METAR: KMDH 221952Z 04009KT 10SM SCT023 07/01 A3010 RMK AO2 SLP194 T00670006

Hora: 14:30 (20:30 UTC)


TAF: manca

Observacions i pronòstics meteorològics de més de 4000 aeroports (METAR i TAF).

Les estacions disponibles són els punts grocs i vermells al mapa.

Posi el ratolí al punt desitjat per veure el nom de l'estació.

Feu clic per veure les observacions i els pronòstics meteorològics.

Per canviar el mapa: feu clic els botons verds amb una creu de color negre per apropar; al botó verd amb un guió per allunyar la imatge; o en les fletxes verdes per a mapes adjacents.


METAR-TAF: